Terminal Aerodrome Forecast
Issued by NWS

Home | Current Version | Previous Version | Text Only | Print | Product List | Glossary On
Versions: 1 2 3 4 5 6 7 8 9 10 11 12 13 14 15 16 17 18 19 20 21 22 23 24 25 26 27 28 29 30 31 32 33 34 35 36 37 38 39 40 41 42 43 44 45 46 47 48
000
FTUS41 KRNK 300912 AAD
TAFLWB
TAF AMD
KLWB 300912Z 3009/0106 07006KT P6SM VCSH SCT025 BKN050
      TEMPO 3009/3012 2SM BR BKN005
     FM301500 11006KT P6SM VCSH SCT007 OVC025
     FM301900 14003KT 5SM TSRA BR OVC015CB
     FM010000 00000KT P6SM SCT015 BKN035=

USA.gov is the U.S. government's official web portal to all federal, state and local government web resources and services.